createdAt,value
2023-11-25T00:01:13.410Z,1.00
2023-11-25T00:06:15.900Z,1.48
2023-11-25T00:11:25.639Z,0.85
2023-11-25T00:16:31.676Z,4.70
2023-11-25T00:21:33.320Z,1.05
2023-11-25T00:26:34.827Z,0.68
2023-11-25T00:31:36.401Z,2.30
2023-11-25T00:36:38.031Z,0.38
2023-11-25T00:41:39.799Z,3.00
2023-11-25T00:46:41.537Z,10.80
2023-11-25T00:51:43.344Z,0.45
2023-11-25T00:56:45.070Z,2.67
2023-11-25T01:01:46.728Z,1.38
2023-11-25T01:06:48.552Z,2.08
2023-11-25T01:11:50.357Z,3.40
2023-11-25T01:16:52.096Z,3.03
2023-11-25T01:21:53.752Z,3.15
2023-11-25T01:26:55.665Z,5.40
2023-11-25T01:31:57.207Z,2.05
2023-11-25T01:36:58.699Z,5.70
2023-11-25T01:42:00.332Z,2.15
2023-11-25T01:47:02.521Z,2.17
2023-11-25T01:52:06.384Z,14.77
2023-11-25T01:57:09.632Z,1.45
2023-11-25T02:02:16.016Z,2.47
2023-11-25T02:07:18.061Z,6.13
2023-11-25T02:12:19.566Z,2.85
2023-11-25T02:17:22.504Z,1.83
2023-11-25T02:22:26.461Z,7.40
2023-11-25T02:27:27.962Z,5.15
2023-11-25T02:32:29.553Z,3.63
2023-11-25T02:37:31.456Z,2.97
2023-11-25T02:42:33.002Z,2.33
2023-11-25T02:47:34.650Z,2.13
2023-11-25T02:52:36.200Z,3.17
2023-11-25T02:57:44.868Z,3.20
2023-11-25T03:02:50.896Z,3.13
2023-11-25T03:07:52.430Z,1.30
2023-11-25T03:12:54.938Z,1.38
2023-11-25T03:17:56.876Z,3.00
2023-11-25T03:22:58.791Z,6.45
2023-11-25T03:28:05.758Z,4.95
2023-11-25T03:33:07.742Z,0.83
2023-11-25T03:38:09.768Z,4.10
2023-11-25T03:43:11.519Z,0.95
2023-11-25T03:48:13.157Z,4.03
2023-11-25T03:53:14.694Z,2.90
2023-11-25T03:58:16.347Z,2.75
2023-11-25T04:03:18.325Z,9.30
2023-11-25T04:08:20.061Z,7.07
2023-11-25T04:13:21.685Z,3.63
2023-11-25T04:18:23.355Z,2.05
2023-11-25T04:23:26.378Z,1.40
2023-11-25T04:28:29.131Z,5.78
2023-11-25T04:33:30.668Z,4.80
2023-11-25T04:38:32.306Z,2.75
2023-11-25T04:43:33.915Z,3.30
2023-11-25T04:48:35.528Z,3.70
2023-11-25T04:53:37.375Z,7.18
2023-11-25T04:58:41.130Z,6.45
2023-11-25T05:03:42.656Z,2.60
2023-11-25T05:08:46.656Z,2.80
2023-11-25T05:13:48.149Z,3.00
2023-11-25T05:18:49.715Z,3.83
2023-11-25T05:23:51.206Z,5.43
2023-11-25T05:28:52.700Z,3.58
2023-11-25T05:33:54.463Z,4.50
2023-11-25T05:38:56.389Z,4.35
2023-11-25T05:43:58.735Z,6.15
2023-11-25T05:49:00.442Z,6.60
2023-11-25T05:54:02.162Z,7.78
2023-11-25T05:59:06.384Z,7.25
2023-11-25T06:04:08.016Z,7.63
2023-11-25T06:09:13.373Z,10.20
2023-11-25T06:14:16.654Z,12.00
2023-11-25T06:19:19.492Z,7.72
2023-11-25T06:24:21.647Z,12.48
2023-11-25T06:29:23.845Z,11.90
2023-11-25T06:34:25.482Z,9.00
2023-11-25T06:39:27.168Z,8.55
2023-11-25T06:44:28.793Z,8.38
2023-11-25T06:49:30.295Z,7.57
2023-11-25T06:54:32.318Z,10.77
2023-11-25T06:59:35.101Z,5.57
2023-11-25T07:04:37.577Z,7.05
2023-11-25T07:09:39.071Z,7.63
2023-11-25T07:14:41.309Z,11.18
2023-11-25T07:19:43.837Z,11.43
2023-11-25T07:24:47.867Z,7.28
2023-11-25T07:29:50.526Z,7.38
2023-11-25T07:34:52.046Z,10.73
2023-11-25T07:39:54.461Z,10.20
2023-11-25T07:44:56.181Z,10.00
2023-11-25T07:49:57.748Z,15.95
2023-11-25T07:54:59.419Z,11.60
2023-11-25T08:00:00.873Z,8.00
2023-11-25T08:05:04.559Z,11.40
2023-11-25T08:10:08.705Z,10.82
2023-11-25T08:15:10.629Z,10.25
2023-11-25T08:20:12.427Z,12.30
2023-11-25T08:25:14.068Z,9.20
2023-11-25T08:30:16.027Z,9.65
2023-11-25T08:35:17.559Z,11.00
2023-11-25T08:40:22.511Z,11.63
2023-11-25T08:45:25.434Z,7.63
2023-11-25T08:50:26.847Z,13.38
2023-11-25T08:55:28.398Z,7.72
2023-11-25T09:00:30.361Z,8.55
2023-11-25T09:05:32.765Z,12.80
2023-11-25T09:10:36.093Z,13.93
2023-11-25T09:15:41.861Z,6.53
2023-11-25T09:20:43.929Z,9.40
2023-11-25T09:25:45.560Z,5.55
2023-11-25T09:30:47.615Z,13.65
2023-11-25T09:35:49.310Z,8.63
2023-11-25T09:40:50.927Z,6.07
2023-11-25T09:45:54.065Z,7.63
2023-11-25T09:50:55.660Z,4.60
2023-11-25T09:56:05.579Z,8.32
2023-11-25T10:01:07.890Z,3.08
2023-11-25T10:06:10.037Z,6.57
2023-11-25T10:11:15.625Z,17.33
2023-11-25T10:16:30.343Z,9.23
2023-11-25T10:21:36.387Z,4.93
2023-11-25T10:26:38.896Z,7.97
2023-11-25T10:31:42.993Z,7.00
2023-11-25T10:36:46.622Z,4.63
2023-11-25T10:41:52.178Z,15.43
2023-11-25T10:46:57.328Z,8.32
2023-11-25T10:52:03.068Z,8.27
2023-11-25T10:57:06.254Z,7.30
2023-11-25T11:02:16.277Z,5.72
2023-11-25T11:07:20.001Z,3.63
2023-11-25T11:12:28.243Z,11.25
2023-11-25T11:17:44.800Z,7.13
2023-11-25T11:22:47.219Z,5.82
2023-11-25T11:28:12.395Z,4.07
2023-11-25T11:33:15.927Z,2.63
2023-11-25T11:38:29.707Z,5.60
2023-11-25T11:43:31.393Z,3.20
2023-11-25T11:48:33.236Z,5.65
2023-11-25T11:53:35.220Z,5.40
2023-11-25T11:58:36.833Z,3.13
2023-11-25T12:03:39.287Z,2.80
2023-11-25T12:08:41.256Z,2.25
2023-11-25T12:13:43.395Z,4.13
2023-11-25T12:18:45.301Z,1.35
2023-11-25T12:23:51.692Z,2.63
2023-11-25T12:28:54.003Z,1.73
2023-11-25T12:33:58.531Z,1.48
2023-11-25T12:39:00.741Z,3.78
2023-11-25T12:44:11.722Z,1.75
2023-11-25T12:49:20.993Z,1.38
2023-11-25T12:54:22.899Z,2.70
2023-11-25T12:59:30.231Z,1.90
2023-11-25T13:04:32.047Z,0.47
2023-11-25T13:09:34.768Z,1.55
2023-11-25T13:14:38.959Z,2.85
2023-11-25T13:19:44.976Z,1.85
2023-11-25T13:24:47.144Z,0.95
2023-11-25T13:29:49.013Z,4.68
2023-11-25T13:34:51.952Z,7.45
2023-11-25T13:39:56.696Z,2.58
2023-11-25T13:44:59.367Z,4.75
2023-11-25T13:50:02.060Z,5.13
2023-11-25T13:55:13.898Z,3.58
2023-11-25T14:00:16.282Z,1.98
2023-11-25T14:05:19.668Z,1.95
2023-11-25T14:10:21.732Z,1.20
2023-11-25T14:15:23.518Z,1.75
2023-11-25T14:20:25.376Z,0.30
2023-11-25T14:25:27.429Z,1.27
2023-11-25T14:30:31.659Z,1.15
2023-11-25T14:35:33.742Z,1.55
2023-11-25T14:40:39.437Z,0.70
2023-11-25T14:45:41.582Z,1.30
2023-11-25T14:50:43.143Z,2.58
2023-11-25T14:55:47.956Z,4.53
2023-11-25T15:00:49.605Z,2.63
2023-11-25T15:05:51.766Z,0.50
2023-11-25T15:10:59.746Z,0.75
2023-11-25T15:16:04.983Z,2.95
2023-11-25T15:21:06.692Z,1.10
2023-11-25T15:26:08.270Z,2.30
2023-11-25T15:31:14.631Z,2.42
2023-11-25T15:36:16.799Z,1.45
2023-11-25T15:41:18.446Z,3.47
2023-11-25T15:46:20.181Z,3.03
2023-11-25T15:51:22.923Z,1.85
2023-11-25T15:56:24.565Z,1.67
2023-11-25T16:01:26.657Z,0.55
2023-11-25T16:06:28.370Z,1.23
2023-11-25T16:11:29.935Z,2.65
2023-11-25T16:16:33.169Z,0.40
2023-11-25T16:21:37.836Z,0.40
2023-11-25T16:26:39.492Z,0.57
2023-11-25T16:31:41.258Z,0.43
2023-11-25T16:36:42.801Z,0.47
2023-11-25T16:41:50.534Z,0.25
2023-11-25T16:46:52.309Z,2.28
2023-11-25T16:51:54.211Z,0.60
2023-11-25T16:56:55.910Z,1.30
2023-11-25T17:01:58.348Z,2.13
2023-11-25T17:07:02.196Z,1.30
2023-11-25T17:12:04.452Z,1.00
2023-11-25T17:17:09.558Z,1.60
2023-11-25T17:22:11.351Z,3.30
2023-11-25T17:27:12.924Z,2.75
2023-11-25T17:32:14.557Z,0.50
2023-11-25T17:37:18.021Z,1.42
2023-11-25T17:42:19.595Z,1.90
2023-11-25T17:47:21.154Z,4.15
2023-11-25T17:52:23.144Z,2.88
2023-11-25T17:57:24.726Z,3.83
2023-11-25T18:02:26.593Z,1.45
2023-11-25T18:07:28.734Z,2.35
2023-11-25T18:12:30.666Z,0.20
2023-11-25T18:17:33.213Z,0.82
2023-11-25T18:22:34.835Z,2.15
2023-11-25T18:27:36.377Z,0.40
2023-11-25T18:32:38.181Z,0.40
2023-11-25T18:37:39.859Z,0.77
2023-11-25T18:42:42.399Z,0.93
2023-11-25T18:47:44.054Z,0.50
2023-11-25T18:52:45.635Z,2.15
2023-11-25T18:57:47.318Z,2.60
2023-11-25T19:02:49.078Z,1.58
2023-11-25T19:07:51.269Z,0.32
2023-11-25T19:12:52.781Z,0.98
2023-11-25T19:17:54.469Z,4.93
2023-11-25T19:22:56.108Z,4.28
2023-11-25T19:27:57.575Z,2.40
2023-11-25T19:32:59.816Z,1.33
2023-11-25T19:38:01.798Z,1.77
2023-11-25T19:43:03.485Z,3.30
2023-11-25T19:48:05.445Z,3.33
2023-11-25T19:53:08.470Z,1.23
2023-11-25T19:58:11.024Z,0.90
2023-11-25T20:03:12.602Z,2.47
2023-11-25T20:08:14.643Z,2.17
2023-11-25T20:13:16.443Z,1.85
2023-11-25T20:18:19.218Z,2.95
2023-11-25T20:23:21.229Z,2.42
2023-11-25T20:28:23.715Z,0.85
2023-11-25T20:33:25.485Z,2.70
2023-11-25T20:38:27.444Z,2.15
2023-11-25T20:43:28.914Z,6.35
2023-11-25T20:48:30.416Z,1.08
2023-11-25T20:53:33.082Z,2.90
2023-11-25T20:58:34.855Z,2.38
2023-11-25T21:03:36.536Z,2.30
2023-11-25T21:08:38.141Z,2.25
2023-11-25T21:13:40.046Z,2.55
2023-11-25T21:18:41.623Z,3.53
2023-11-25T21:23:43.125Z,1.25
2023-11-25T21:28:44.587Z,1.23
2023-11-25T21:33:46.378Z,2.25
2023-11-25T21:38:48.080Z,1.23
2023-11-25T21:43:49.715Z,0.55
2023-11-25T21:48:51.378Z,0.77
2023-11-25T21:53:52.992Z,3.03
2023-11-25T21:58:54.541Z,0.88
2023-11-25T22:03:56.944Z,3.72
2023-11-25T22:08:59.185Z,2.10
2023-11-25T22:14:01.366Z,1.27
2023-11-25T22:19:02.922Z,2.55
2023-11-25T22:24:04.874Z,1.88
2023-11-25T22:29:06.888Z,0.80
2023-11-25T22:34:08.765Z,1.33
2023-11-25T22:39:10.327Z,5.32
2023-11-25T22:44:11.838Z,1.25
2023-11-25T22:49:13.795Z,3.80
2023-11-25T22:54:18.420Z,4.60
2023-11-25T22:59:19.999Z,5.85
2023-11-25T23:04:21.522Z,5.72
2023-11-25T23:09:23.604Z,3.72
2023-11-25T23:14:25.256Z,2.47
2023-11-25T23:19:26.831Z,2.80
2023-11-25T23:24:28.334Z,4.32
2023-11-25T23:29:31.156Z,5.25
2023-11-25T23:34:33.389Z,2.00
2023-11-25T23:39:34.839Z,3.00
2023-11-25T23:44:36.690Z,2.28
2023-11-25T23:49:38.226Z,6.25
2023-11-25T23:54:43.410Z,1.83
2023-11-25T23:59:45.821Z,6.90
